sensor_id;sensor_type;location;lat;lon;timestamp;temperature;humidity
45008;DHT22;30743;52.008;5.644;2024-03-25T00:00:54;10.60;99.90
45008;DHT22;30743;52.008;5.644;2024-03-25T00:03:20;10.40;99.90
45008;DHT22;30743;52.008;5.644;2024-03-25T00:05:45;10.50;99.90
45008;DHT22;30743;52.008;5.644;2024-03-25T00:08:11;10.50;99.90
45008;DHT22;30743;52.008;5.644;2024-03-25T00:10:37;10.50;99.90
45008;DHT22;30743;52.008;5.644;2024-03-25T00:13:03;10.70;99.90
45008;DHT22;30743;52.008;5.644;2024-03-25T00:15:29;10.70;99.90
45008;DHT22;30743;52.008;5.644;2024-03-25T00:17:55;10.60;99.90
45008;DHT22;30743;52.008;5.644;2024-03-25T00:20:20;10.40;99.90
45008;DHT22;30743;52.008;5.644;2024-03-25T00:22:46;10.20;99.90
45008;DHT22;30743;52.008;5.644;2024-03-25T00:25:11;10.20;99.90
45008;DHT22;30743;52.008;5.644;2024-03-25T00:27:37;10.20;99.90
45008;DHT22;30743;52.008;5.644;2024-03-25T00:30:03;10.10;99.90
45008;DHT22;30743;52.008;5.644;2024-03-25T00:32:30;10.10;99.90
45008;DHT22;30743;52.008;5.644;2024-03-25T00:34:55;10.10;99.90
45008;DHT22;30743;52.008;5.644;2024-03-25T00:37:21;10.10;99.90
45008;DHT22;30743;52.008;5.644;2024-03-25T00:39:47;10.20;99.90
45008;DHT22;30743;52.008;5.644;2024-03-25T00:42:12;10.30;99.90
45008;DHT22;30743;52.008;5.644;2024-03-25T00:44:38;10.30;99.90
45008;DHT22;30743;52.008;5.644;2024-03-25T00:47:04;10.40;99.90
45008;DHT22;30743;52.008;5.644;2024-03-25T00:49:29;10.50;99.90
45008;DHT22;30743;52.008;5.644;2024-03-25T00:51:55;10.50;99.90
45008;DHT22;30743;52.008;5.644;2024-03-25T00:54:20;10.40;99.90
45008;DHT22;30743;52.008;5.644;2024-03-25T00:56:46;10.40;99.90
45008;DHT22;30743;52.008;5.644;2024-03-25T00:59:12;10.50;99.90
45008;DHT22;30743;52.008;5.644;2024-03-25T01:01:37;10.40;99.90
45008;DHT22;30743;52.008;5.644;2024-03-25T01:04:03;10.40;99.90
45008;DHT22;30743;52.008;5.644;2024-03-25T01:06:29;10.50;99.90
45008;DHT22;30743;52.008;5.644;2024-03-25T01:08:55;10.50;99.90
45008;DHT22;30743;52.008;5.644;2024-03-25T01:11:20;10.50;99.90
45008;DHT22;30743;52.008;5.644;2024-03-25T01:13:47;10.40;99.90
45008;DHT22;30743;52.008;5.644;2024-03-25T01:16:13;10.40;99.90
45008;DHT22;30743;52.008;5.644;2024-03-25T01:18:38;10.40;99.90
45008;DHT22;30743;52.008;5.644;2024-03-25T01:21:04;10.20;99.90
45008;DHT22;30743;52.008;5.644;2024-03-25T01:23:30;10.10;99.90
45008;DHT22;30743;52.008;5.644;2024-03-25T01:25:55;10.10;99.90
45008;DHT22;30743;52.008;5.644;2024-03-25T01:28:21;10.20;99.90
45008;DHT22;30743;52.008;5.644;2024-03-25T01:30:48;10.20;99.90
45008;DHT22;30743;52.008;5.644;2024-03-25T01:33:13;10.10;99.90
45008;DHT22;30743;52.008;5.644;2024-03-25T01:35:39;10.00;99.90
45008;DHT22;30743;52.008;5.644;2024-03-25T01:38:05;9.90;99.90
45008;DHT22;30743;52.008;5.644;2024-03-25T01:40:31;10.00;99.90
45008;DHT22;30743;52.008;5.644;2024-03-25T01:45:24;10.00;99.90
45008;DHT22;30743;52.008;5.644;2024-03-25T01:47:49;9.90;99.90
45008;DHT22;30743;52.008;5.644;2024-03-25T01:50:15;9.90;99.90
45008;DHT22;30743;52.008;5.644;2024-03-25T01:52:41;9.60;99.90
45008;DHT22;30743;52.008;5.644;2024-03-25T01:55:10;9.60;99.90
45008;DHT22;30743;52.008;5.644;2024-03-25T01:57:38;9.50;99.90
45008;DHT22;30743;52.008;5.644;2024-03-25T02:00:05;9.50;99.90
45008;DHT22;30743;52.008;5.644;2024-03-25T02:02:31;9.60;99.90
45008;DHT22;30743;52.008;5.644;2024-03-25T02:04:58;9.60;99.90
45008;DHT22;30743;52.008;5.644;2024-03-25T02:07:25;9.40;99.90
45008;DHT22;30743;52.008;5.644;2024-03-25T02:09:52;9.20;99.90
45008;DHT22;30743;52.008;5.644;2024-03-25T02:12:18;9.10;99.90
45008;DHT22;30743;52.008;5.644;2024-03-25T02:14:43;9.20;99.90
45008;DHT22;30743;52.008;5.644;2024-03-25T02:17:09;9.20;99.90
45008;DHT22;30743;52.008;5.644;2024-03-25T02:19:37;9.20;99.90
45008;DHT22;30743;52.008;5.644;2024-03-25T02:22:03;9.20;99.90
45008;DHT22;30743;52.008;5.644;2024-03-25T02:24:30;9.30;99.90
45008;DHT22;30743;52.008;5.644;2024-03-25T02:26:56;9.30;99.90
45008;DHT22;30743;52.008;5.644;2024-03-25T02:29:22;9.30;99.90
45008;DHT22;30743;52.008;5.644;2024-03-25T02:31:47;9.40;99.90
45008;DHT22;30743;52.008;5.644;2024-03-25T02:34:13;9.50;99.90
45008;DHT22;30743;52.008;5.644;2024-03-25T02:36:39;9.60;99.90
45008;DHT22;30743;52.008;5.644;2024-03-25T02:39:04;9.60;99.90
45008;DHT22;30743;52.008;5.644;2024-03-25T02:41:30;9.60;99.90
45008;DHT22;30743;52.008;5.644;2024-03-25T02:43:56;9.70;99.90
45008;DHT22;30743;52.008;5.644;2024-03-25T02:46:22;9.70;99.90
45008;DHT22;30743;52.008;5.644;2024-03-25T02:48:48;9.70;99.90
45008;DHT22;30743;52.008;5.644;2024-03-25T02:51:13;9.80;99.90
45008;DHT22;30743;52.008;5.644;2024-03-25T02:53:39;9.90;99.90
45008;DHT22;30743;52.008;5.644;2024-03-25T02:56:05;9.90;99.90
45008;DHT22;30743;52.008;5.644;2024-03-25T02:58:30;10.00;99.90
45008;DHT22;30743;52.008;5.644;2024-03-25T03:00:56;10.00;99.90
45008;DHT22;30743;52.008;5.644;2024-03-25T03:03:21;10.00;99.90
45008;DHT22;30743;52.008;5.644;2024-03-25T03:05:47;10.00;99.90
45008;DHT22;30743;52.008;5.644;2024-03-25T03:08:13;10.10;99.90
45008;DHT22;30743;52.008;5.644;2024-03-25T03:10:38;10.10;99.90
45008;DHT22;30743;52.008;5.644;2024-03-25T03:13:04;10.20;99.90
45008;DHT22;30743;52.008;5.644;2024-03-25T03:15:29;10.10;99.90
45008;DHT22;30743;52.008;5.644;2024-03-25T03:17:55;10.20;99.90
45008;DHT22;30743;52.008;5.644;2024-03-25T03:20:21;10.20;99.90
45008;DHT22;30743;52.008;5.644;2024-03-25T03:22:46;10.20;99.90
45008;DHT22;30743;52.008;5.644;2024-03-25T03:25:12;10.20;99.90
45008;DHT22;30743;52.008;5.644;2024-03-25T03:27:38;10.10;99.90
45008;DHT22;30743;52.008;5.644;2024-03-25T03:30:04;10.10;99.90
45008;DHT22;30743;52.008;5.644;2024-03-25T03:32:29;10.10;99.90
45008;DHT22;30743;52.008;5.644;2024-03-25T03:34:55;10.00;99.90
45008;DHT22;30743;52.008;5.644;2024-03-25T03:37:20;10.00;99.90
45008;DHT22;30743;52.008;5.644;2024-03-25T03:39:46;9.90;99.90
45008;DHT22;30743;52.008;5.644;2024-03-25T03:42:11;9.90;99.90
45008;DHT22;30743;52.008;5.644;2024-03-25T03:44:37;9.90;99.90
45008;DHT22;30743;52.008;5.644;2024-03-25T03:47:03;9.90;99.90
45008;DHT22;30743;52.008;5.644;2024-03-25T03:49:28;9.90;99.90
45008;DHT22;30743;52.008;5.644;2024-03-25T03:51:54;9.90;99.90
45008;DHT22;30743;52.008;5.644;2024-03-25T03:54:19;9.80;99.90
45008;DHT22;30743;52.008;5.644;2024-03-25T03:56:45;9.80;99.90
45008;DHT22;30743;52.008;5.644;2024-03-25T03:59:10;9.70;99.90
45008;DHT22;30743;52.008;5.644;2024-03-25T04:01:36;9.70;99.90
45008;DHT22;30743;52.008;5.644;2024-03-25T04:04:01;9.70;99.90
45008;DHT22;30743;52.008;5.644;2024-03-25T04:06:27;9.60;99.90
45008;DHT22;30743;52.008;5.644;2024-03-25T04:08:53;9.60;99.90
45008;DHT22;30743;52.008;5.644;2024-03-25T04:11:18;9.60;99.90
45008;DHT22;30743;52.008;5.644;2024-03-25T04:13:44;9.50;99.90
45008;DHT22;30743;52.008;5.644;2024-03-25T04:16:11;9.50;99.90
45008;DHT22;30743;52.008;5.644;2024-03-25T04:18:37;9.40;99.90
45008;DHT22;30743;52.008;5.644;2024-03-25T04:21:02;9.30;99.90
45008;DHT22;30743;52.008;5.644;2024-03-25T04:23:28;9.20;99.90
45008;DHT22;30743;52.008;5.644;2024-03-25T04:25:53;9.20;99.90
45008;DHT22;30743;52.008;5.644;2024-03-25T04:28:19;9.10;99.90
45008;DHT22;30743;52.008;5.644;2024-03-25T04:30:51;9.10;99.90
45008;DHT22;30743;52.008;5.644;2024-03-25T04:33:17;9.10;99.90
45008;DHT22;30743;52.008;5.644;2024-03-25T04:35:42;9.20;99.90
45008;DHT22;30743;52.008;5.644;2024-03-25T04:38:08;9.20;99.90
45008;DHT22;30743;52.008;5.644;2024-03-25T04:40:35;9.20;99.90
45008;DHT22;30743;52.008;5.644;2024-03-25T04:43:00;9.10;99.90
45008;DHT22;30743;52.008;5.644;2024-03-25T04:45:28;9.10;99.90
45008;DHT22;30743;52.008;5.644;2024-03-25T04:47:53;9.10;99.90
45008;DHT22;30743;52.008;5.644;2024-03-25T04:50:19;9.00;99.90
45008;DHT22;30743;52.008;5.644;2024-03-25T04:52:44;9.00;99.90
45008;DHT22;30743;52.008;5.644;2024-03-25T04:55:10;9.00;99.90
45008;DHT22;30743;52.008;5.644;2024-03-25T04:57:35;9.00;99.90
45008;DHT22;30743;52.008;5.644;2024-03-25T05:00:01;8.90;99.90
45008;DHT22;30743;52.008;5.644;2024-03-25T05:02:27;8.90;99.90
45008;DHT22;30743;52.008;5.644;2024-03-25T05:04:53;8.80;99.90
45008;DHT22;30743;52.008;5.644;2024-03-25T05:07:18;8.80;99.90
45008;DHT22;30743;52.008;5.644;2024-03-25T05:09:44;8.80;99.90
45008;DHT22;30743;52.008;5.644;2024-03-25T05:12:10;7.50;99.90
45008;DHT22;30743;52.008;5.644;2024-03-25T05:14:35;8.90;99.90
45008;DHT22;30743;52.008;5.644;2024-03-25T05:17:01;8.90;99.90
45008;DHT22;30743;52.008;5.644;2024-03-25T05:19:28;8.90;99.90
45008;DHT22;30743;52.008;5.644;2024-03-25T05:21:54;8.90;99.90
45008;DHT22;30743;52.008;5.644;2024-03-25T05:24:20;8.90;99.90
45008;DHT22;30743;52.008;5.644;2024-03-25T05:26:45;8.90;99.90
45008;DHT22;30743;52.008;5.644;2024-03-25T05:29:11;8.90;99.90
45008;DHT22;30743;52.008;5.644;2024-03-25T05:31:37;8.90;99.90
45008;DHT22;30743;52.008;5.644;2024-03-25T05:34:02;9.00;99.90
45008;DHT22;30743;52.008;5.644;2024-03-25T05:36:33;9.00;99.90
45008;DHT22;30743;52.008;5.644;2024-03-25T05:38:59;9.60;99.90
45008;DHT22;30743;52.008;5.644;2024-03-25T05:41:25;9.00;99.90
45008;DHT22;30743;52.008;5.644;2024-03-25T05:43:50;9.10;99.90
45008;DHT22;30743;52.008;5.644;2024-03-25T05:46:16;9.10;99.90
45008;DHT22;30743;52.008;5.644;2024-03-25T05:48:42;9.10;99.90
45008;DHT22;30743;52.008;5.644;2024-03-25T05:51:08;9.10;99.90
45008;DHT22;30743;52.008;5.644;2024-03-25T05:53:34;9.10;99.90
45008;DHT22;30743;52.008;5.644;2024-03-25T05:56:00;9.00;99.90
45008;DHT22;30743;52.008;5.644;2024-03-25T05:58:25;8.90;99.90
45008;DHT22;30743;52.008;5.644;2024-03-25T06:00:52;8.80;99.90
45008;DHT22;30743;52.008;5.644;2024-03-25T06:03:20;9.30;99.90
45008;DHT22;30743;52.008;5.644;2024-03-25T06:05:47;9.00;99.90
45008;DHT22;30743;52.008;5.644;2024-03-25T06:08:13;9.10;99.90
45008;DHT22;30743;52.008;5.644;2024-03-25T06:10:46;9.20;99.90
45008;DHT22;30743;52.008;5.644;2024-03-25T06:13:11;9.30;99.90
45008;DHT22;30743;52.008;5.644;2024-03-25T06:15:37;9.40;99.90
45008;DHT22;30743;52.008;5.644;2024-03-25T06:18:03;9.50;99.90
45008;DHT22;30743;52.008;5.644;2024-03-25T06:20:28;9.60;99.90
45008;DHT22;30743;52.008;5.644;2024-03-25T06:22:54;9.70;99.90
45008;DHT22;30743;52.008;5.644;2024-03-25T06:25:19;9.70;99.90
45008;DHT22;30743;52.008;5.644;2024-03-25T06:27:45;9.90;99.90
45008;DHT22;30743;52.008;5.644;2024-03-25T06:30:11;10.00;99.90
45008;DHT22;30743;52.008;5.644;2024-03-25T06:32:55;10.10;99.90
45008;DHT22;30743;52.008;5.644;2024-03-25T06:35:39;10.20;99.90
45008;DHT22;30743;52.008;5.644;2024-03-25T06:38:07;10.30;99.90
45008;DHT22;30743;52.008;5.644;2024-03-25T06:40:32;10.40;99.90
45008;DHT22;30743;52.008;5.644;2024-03-25T06:42:58;10.60;99.90
45008;DHT22;30743;52.008;5.644;2024-03-25T06:45:24;10.70;99.90
45008;DHT22;30743;52.008;5.644;2024-03-25T06:47:49;11.00;99.90
45008;DHT22;30743;52.008;5.644;2024-03-25T06:50:15;11.00;99.90
45008;DHT22;30743;52.008;5.644;2024-03-25T06:52:40;11.10;99.90
45008;DHT22;30743;52.008;5.644;2024-03-25T06:55:06;11.40;99.90
45008;DHT22;30743;52.008;5.644;2024-03-25T06:57:33;11.60;99.90
45008;DHT22;30743;52.008;5.644;2024-03-25T06:59:58;11.90;99.90
45008;DHT22;30743;52.008;5.644;2024-03-25T07:02:24;12.10;99.90
45008;DHT22;30743;52.008;5.644;2024-03-25T07:04:50;12.30;99.90
45008;DHT22;30743;52.008;5.644;2024-03-25T07:07:15;12.50;99.90
45008;DHT22;30743;52.008;5.644;2024-03-25T07:09:41;12.70;99.90
45008;DHT22;30743;52.008;5.644;2024-03-25T07:12:07;12.90;99.90
45008;DHT22;30743;52.008;5.644;2024-03-25T07:14:32;13.50;99.90
45008;DHT22;30743;52.008;5.644;2024-03-25T07:16:58;13.90;99.90
45008;DHT22;30743;52.008;5.644;2024-03-25T07:19:24;14.00;99.90
45008;DHT22;30743;52.008;5.644;2024-03-25T07:21:49;14.40;99.90
45008;DHT22;30743;52.008;5.644;2024-03-25T07:26:41;15.10;99.90
45008;DHT22;30743;52.008;5.644;2024-03-25T07:29:06;15.40;99.90
45008;DHT22;30743;52.008;5.644;2024-03-25T07:31:32;15.40;99.90
45008;DHT22;30743;52.008;5.644;2024-03-25T07:33:58;15.60;99.90
45008;DHT22;30743;52.008;5.644;2024-03-25T07:36:24;15.80;99.90
45008;DHT22;30743;52.008;5.644;2024-03-25T07:38:49;16.20;99.90
45008;DHT22;30743;52.008;5.644;2024-03-25T07:41:15;16.70;99.90
45008;DHT22;30743;52.008;5.644;2024-03-25T07:43:41;17.10;99.90
45008;DHT22;30743;52.008;5.644;2024-03-25T07:46:06;17.40;99.90
45008;DHT22;30743;52.008;5.644;2024-03-25T07:48:32;17.80;99.90
45008;DHT22;30743;52.008;5.644;2024-03-25T07:50:57;18.30;99.90
45008;DHT22;30743;52.008;5.644;2024-03-25T07:53:23;18.70;99.90
45008;DHT22;30743;52.008;5.644;2024-03-25T07:55:48;19.10;99.90
45008;DHT22;30743;52.008;5.644;2024-03-25T07:58:14;19.40;99.90
45008;DHT22;30743;52.008;5.644;2024-03-25T08:00:39;19.90;99.90
45008;DHT22;30743;52.008;5.644;2024-03-25T08:03:05;20.30;99.90
45008;DHT22;30743;52.008;5.644;2024-03-25T08:05:31;20.50;99.90
45008;DHT22;30743;52.008;5.644;2024-03-25T08:07:56;20.60;99.90
45008;DHT22;30743;52.008;5.644;2024-03-25T08:10:22;20.80;99.90
45008;DHT22;30743;52.008;5.644;2024-03-25T08:12:47;20.90;99.90
45008;DHT22;30743;52.008;5.644;2024-03-25T08:15:14;21.20;99.90
45008;DHT22;30743;52.008;5.644;2024-03-25T08:17:39;21.50;99.90
45008;DHT22;30743;52.008;5.644;2024-03-25T08:20:05;21.70;99.90
45008;DHT22;30743;52.008;5.644;2024-03-25T08:22:31;21.90;99.90
45008;DHT22;30743;52.008;5.644;2024-03-25T08:24:56;22.10;99.90
45008;DHT22;30743;52.008;5.644;2024-03-25T08:27:22;22.00;99.90
45008;DHT22;30743;52.008;5.644;2024-03-25T08:29:47;21.90;99.90
45008;DHT22;30743;52.008;5.644;2024-03-25T08:32:16;22.00;99.90
45008;DHT22;30743;52.008;5.644;2024-03-25T08:34:42;22.40;99.90
45008;DHT22;30743;52.008;5.644;2024-03-25T08:37:07;22.40;99.90
45008;DHT22;30743;52.008;5.644;2024-03-25T08:39:33;22.30;99.90
45008;DHT22;30743;52.008;5.644;2024-03-25T08:41:58;22.10;99.90
45008;DHT22;30743;52.008;5.644;2024-03-25T08:44:24;22.40;99.90
45008;DHT22;30743;52.008;5.644;2024-03-25T08:46:50;22.40;99.90
45008;DHT22;30743;52.008;5.644;2024-03-25T08:49:15;22.40;99.90
45008;DHT22;30743;52.008;5.644;2024-03-25T08:51:41;22.30;99.90
45008;DHT22;30743;52.008;5.644;2024-03-25T08:54:07;22.00;99.90
45008;DHT22;30743;52.008;5.644;2024-03-25T08:56:32;21.90;99.90
45008;DHT22;30743;52.008;5.644;2024-03-25T08:58:58;22.10;99.90
45008;DHT22;30743;52.008;5.644;2024-03-25T09:01:23;22.50;99.90
45008;DHT22;30743;52.008;5.644;2024-03-25T09:03:50;22.70;99.90
45008;DHT22;30743;52.008;5.644;2024-03-25T09:06:15;22.70;99.90
45008;DHT22;30743;52.008;5.644;2024-03-25T09:08:42;22.90;99.90
45008;DHT22;30743;52.008;5.644;2024-03-25T09:11:26;23.00;99.90
45008;DHT22;30743;52.008;5.644;2024-03-25T09:13:52;23.40;99.90
45008;DHT22;30743;52.008;5.644;2024-03-25T09:16:18;23.60;99.90
45008;DHT22;30743;52.008;5.644;2024-03-25T09:18:44;23.60;99.90
45008;DHT22;30743;52.008;5.644;2024-03-25T09:21:10;23.50;99.90
45008;DHT22;30743;52.008;5.644;2024-03-25T09:23:35;23.50;99.90
45008;DHT22;30743;52.008;5.644;2024-03-25T09:26:01;23.60;99.90
45008;DHT22;30743;52.008;5.644;2024-03-25T09:28:26;23.10;99.90
45008;DHT22;30743;52.008;5.644;2024-03-25T09:30:52;22.80;99.90
45008;DHT22;30743;52.008;5.644;2024-03-25T09:33:17;23.00;99.90
45008;DHT22;30743;52.008;5.644;2024-03-25T09:35:43;22.70;99.90
45008;DHT22;30743;52.008;5.644;2024-03-25T09:38:09;22.70;99.90
45008;DHT22;30743;52.008;5.644;2024-03-25T09:40:40;22.20;99.90
45008;DHT22;30743;52.008;5.644;2024-03-25T09:43:16;22.10;99.90
45008;DHT22;30743;52.008;5.644;2024-03-25T09:45:47;21.90;99.90
45008;DHT22;30743;52.008;5.644;2024-03-25T09:48:21;22.00;99.90
45008;DHT22;30743;52.008;5.644;2024-03-25T09:50:47;21.80;99.90
45008;DHT22;30743;52.008;5.644;2024-03-25T09:53:14;20.80;99.90
45008;DHT22;30743;52.008;5.644;2024-03-25T09:55:40;20.70;99.90
45008;DHT22;30743;52.008;5.644;2024-03-25T09:58:05;20.60;99.90
45008;DHT22;30743;52.008;5.644;2024-03-25T10:00:31;20.40;99.90
45008;DHT22;30743;52.008;5.644;2024-03-25T10:02:57;20.40;99.90
45008;DHT22;30743;52.008;5.644;2024-03-25T10:05:23;20.40;99.90
45008;DHT22;30743;52.008;5.644;2024-03-25T10:07:48;20.50;99.90
45008;DHT22;30743;52.008;5.644;2024-03-25T10:10:19;20.70;99.90
45008;DHT22;30743;52.008;5.644;2024-03-25T10:12:45;21.00;99.90
45008;DHT22;30743;52.008;5.644;2024-03-25T10:15:15;21.30;99.90
45008;DHT22;30743;52.008;5.644;2024-03-25T10:17:41;21.30;99.90
45008;DHT22;30743;52.008;5.644;2024-03-25T10:20:07;21.40;99.90
45008;DHT22;30743;52.008;5.644;2024-03-25T10:22:44;21.60;99.90
45008;DHT22;30743;52.008;5.644;2024-03-25T10:25:26;21.30;99.90
45008;DHT22;30743;52.008;5.644;2024-03-25T10:27:59;21.40;99.90
45008;DHT22;30743;52.008;5.644;2024-03-25T10:30:26;21.30;99.90
45008;DHT22;30743;52.008;5.644;2024-03-25T10:33:05;21.30;99.90
45008;DHT22;30743;52.008;5.644;2024-03-25T10:35:33;21.30;99.90
45008;DHT22;30743;52.008;5.644;2024-03-25T10:38:04;21.50;99.90
45008;DHT22;30743;52.008;5.644;2024-03-25T10:40:35;21.20;99.90
45008;DHT22;30743;52.008;5.644;2024-03-25T10:43:06;21.30;99.90
45008;DHT22;30743;52.008;5.644;2024-03-25T10:45:34;21.60;99.90
45008;DHT22;30743;52.008;5.644;2024-03-25T10:48:17;22.20;99.90
45008;DHT22;30743;52.008;5.644;2024-03-25T10:50:43;22.90;99.90
45008;DHT22;30743;52.008;5.644;2024-03-25T10:53:10;23.40;98.40
45008;DHT22;30743;52.008;5.644;2024-03-25T10:55:36;24.10;99.40
45008;DHT22;30743;52.008;5.644;2024-03-25T10:58:04;24.50;97.60
45008;DHT22;30743;52.008;5.644;2024-03-25T11:00:30;24.40;97.50
45008;DHT22;30743;52.008;5.644;2024-03-25T11:02:56;24.20;96.70
45008;DHT22;30743;52.008;5.644;2024-03-25T11:05:22;24.00;96.70
45008;DHT22;30743;52.008;5.644;2024-03-25T11:07:48;23.40;96.30
45008;DHT22;30743;52.008;5.644;2024-03-25T11:10:13;23.40;96.20
45008;DHT22;30743;52.008;5.644;2024-03-25T11:12:41;23.30;96.60
45008;DHT22;30743;52.008;5.644;2024-03-25T11:15:08;22.50;95.80
45008;DHT22;30743;52.008;5.644;2024-03-25T11:17:34;22.60;96.60
45008;DHT22;30743;52.008;5.644;2024-03-25T11:20:10;22.50;96.00
45008;DHT22;30743;52.008;5.644;2024-03-25T11:22:36;22.60;97.50
45008;DHT22;30743;52.008;5.644;2024-03-25T11:25:13;22.70;97.60
45008;DHT22;30743;52.008;5.644;2024-03-25T11:27:39;22.90;97.70
45008;DHT22;30743;52.008;5.644;2024-03-25T11:30:06;22.90;97.30
45008;DHT22;30743;52.008;5.644;2024-03-25T11:32:44;23.00;96.90
45008;DHT22;30743;52.008;5.644;2024-03-25T11:35:10;23.40;98.00
45008;DHT22;30743;52.008;5.644;2024-03-25T11:37:40;23.50;96.60
45008;DHT22;30743;52.008;5.644;2024-03-25T11:40:07;23.40;96.30
45008;DHT22;30743;52.008;5.644;2024-03-25T11:42:34;23.60;97.90
45008;DHT22;30743;52.008;5.644;2024-03-25T11:45:01;23.90;96.20
45008;DHT22;30743;52.008;5.644;2024-03-25T11:47:27;24.10;94.70
45008;DHT22;30743;52.008;5.644;2024-03-25T11:49:53;24.40;94.20
45008;DHT22;30743;52.008;5.644;2024-03-25T11:52:18;24.50;93.30
45008;DHT22;30743;52.008;5.644;2024-03-25T11:54:44;24.80;93.00
45008;DHT22;30743;52.008;5.644;2024-03-25T11:57:09;24.60;93.40
45008;DHT22;30743;52.008;5.644;2024-03-25T11:59:35;24.00;92.40
45008;DHT22;30743;52.008;5.644;2024-03-25T12:02:01;23.80;92.40
45008;DHT22;30743;52.008;5.644;2024-03-25T12:04:27;24.00;93.30
45008;DHT22;30743;52.008;5.644;2024-03-25T12:06:55;24.10;93.50
45008;DHT22;30743;52.008;5.644;2024-03-25T12:09:22;23.90;93.90
45008;DHT22;30743;52.008;5.644;2024-03-25T12:12:07;23.90;93.60
45008;DHT22;30743;52.008;5.644;2024-03-25T12:14:33;24.30;94.10
45008;DHT22;30743;52.008;5.644;2024-03-25T12:16:59;24.30;94.20
45008;DHT22;30743;52.008;5.644;2024-03-25T12:19:25;24.40;92.50
45008;DHT22;30743;52.008;5.644;2024-03-25T12:21:58;24.20;93.00
45008;DHT22;30743;52.008;5.644;2024-03-25T12:24:24;23.90;92.00
45008;DHT22;30743;52.008;5.644;2024-03-25T12:26:49;23.90;92.40
45008;DHT22;30743;52.008;5.644;2024-03-25T12:29:15;24.20;94.00
45008;DHT22;30743;52.008;5.644;2024-03-25T12:31:40;24.50;91.80
45008;DHT22;30743;52.008;5.644;2024-03-25T12:34:12;24.70;91.70
45008;DHT22;30743;52.008;5.644;2024-03-25T12:36:37;24.50;91.20
45008;DHT22;30743;52.008;5.644;2024-03-25T12:39:03;24.40;91.10
45008;DHT22;30743;52.008;5.644;2024-03-25T12:41:28;24.50;92.50
45008;DHT22;30743;52.008;5.644;2024-03-25T12:43:54;24.40;91.70
45008;DHT22;30743;52.008;5.644;2024-03-25T12:46:20;24.20;91.50
45008;DHT22;30743;52.008;5.644;2024-03-25T12:48:46;24.20;91.80
45008;DHT22;30743;52.008;5.644;2024-03-25T12:51:13;24.20;91.40
45008;DHT22;30743;52.008;5.644;2024-03-25T12:53:39;23.90;91.90
45008;DHT22;30743;52.008;5.644;2024-03-25T12:56:06;23.80;90.90
45008;DHT22;30743;52.008;5.644;2024-03-25T12:58:31;23.70;90.40
45008;DHT22;30743;52.008;5.644;2024-03-25T13:00:57;24.10;90.90
45008;DHT22;30743;52.008;5.644;2024-03-25T13:03:23;23.90;90.20
45008;DHT22;30743;52.008;5.644;2024-03-25T13:05:48;24.00;89.50
45008;DHT22;30743;52.008;5.644;2024-03-25T13:08:14;23.50;88.80
45008;DHT22;30743;52.008;5.644;2024-03-25T13:10:40;22.60;90.50
45008;DHT22;30743;52.008;5.644;2024-03-25T13:13:05;22.10;91.00
45008;DHT22;30743;52.008;5.644;2024-03-25T13:15:31;21.80;91.30
45008;DHT22;30743;52.008;5.644;2024-03-25T13:17:57;22.00;91.30
45008;DHT22;30743;52.008;5.644;2024-03-25T13:20:23;22.30;91.30
45008;DHT22;30743;52.008;5.644;2024-03-25T13:22:49;22.60;89.90
45008;DHT22;30743;52.008;5.644;2024-03-25T13:25:18;22.80;89.90
45008;DHT22;30743;52.008;5.644;2024-03-25T13:27:44;22.60;89.60
45008;DHT22;30743;52.008;5.644;2024-03-25T13:30:09;22.00;89.40
45008;DHT22;30743;52.008;5.644;2024-03-25T13:32:35;21.60;90.00
45008;DHT22;30743;52.008;5.644;2024-03-25T13:35:00;21.60;90.90
45008;DHT22;30743;52.008;5.644;2024-03-25T13:37:26;21.90;91.80
45008;DHT22;30743;52.008;5.644;2024-03-25T13:39:52;22.10;88.90
45008;DHT22;30743;52.008;5.644;2024-03-25T13:42:18;21.90;92.40
45008;DHT22;30743;52.008;5.644;2024-03-25T13:44:44;21.80;90.80
45008;DHT22;30743;52.008;5.644;2024-03-25T13:47:09;22.00;90.90
45008;DHT22;30743;52.008;5.644;2024-03-25T13:49:35;22.30;90.90
45008;DHT22;30743;52.008;5.644;2024-03-25T13:52:00;22.20;89.80
45008;DHT22;30743;52.008;5.644;2024-03-25T13:54:29;22.50;90.30
45008;DHT22;30743;52.008;5.644;2024-03-25T13:56:58;22.40;91.00
45008;DHT22;30743;52.008;5.644;2024-03-25T13:59:23;22.30;90.90
45008;DHT22;30743;52.008;5.644;2024-03-25T14:01:49;22.40;87.90
45008;DHT22;30743;52.008;5.644;2024-03-25T14:04:14;21.80;89.10
45008;DHT22;30743;52.008;5.644;2024-03-25T14:06:40;21.60;90.40
45008;DHT22;30743;52.008;5.644;2024-03-25T14:09:07;21.60;90.10
45008;DHT22;30743;52.008;5.644;2024-03-25T14:11:36;21.90;90.20
45008;DHT22;30743;52.008;5.644;2024-03-25T14:14:02;22.20;90.90
45008;DHT22;30743;52.008;5.644;2024-03-25T14:16:30;22.70;90.50
45008;DHT22;30743;52.008;5.644;2024-03-25T14:18:56;23.30;90.30
45008;DHT22;30743;52.008;5.644;2024-03-25T14:21:21;23.70;90.70
45008;DHT22;30743;52.008;5.644;2024-03-25T14:23:47;23.50;89.40
45008;DHT22;30743;52.008;5.644;2024-03-25T14:26:13;23.30;87.00
45008;DHT22;30743;52.008;5.644;2024-03-25T14:28:42;23.50;88.40
45008;DHT22;30743;52.008;5.644;2024-03-25T14:31:07;23.70;88.70
45008;DHT22;30743;52.008;5.644;2024-03-25T14:33:33;23.20;89.20
45008;DHT22;30743;52.008;5.644;2024-03-25T14:35:59;22.90;88.70
45008;DHT22;30743;52.008;5.644;2024-03-25T14:38:25;22.70;88.10
45008;DHT22;30743;52.008;5.644;2024-03-25T14:40:51;22.50;87.30
45008;DHT22;30743;52.008;5.644;2024-03-25T14:43:16;22.10;83.00
45008;DHT22;30743;52.008;5.644;2024-03-25T14:45:44;21.60;86.00
45008;DHT22;30743;52.008;5.644;2024-03-25T14:48:10;21.60;85.40
45008;DHT22;30743;52.008;5.644;2024-03-25T14:50:36;21.60;89.50
45008;DHT22;30743;52.008;5.644;2024-03-25T14:53:02;21.40;90.70
45008;DHT22;30743;52.008;5.644;2024-03-25T14:55:29;20.90;91.00
45008;DHT22;30743;52.008;5.644;2024-03-25T14:57:54;21.40;91.80
45008;DHT22;30743;52.008;5.644;2024-03-25T15:00:20;21.60;90.60
45008;DHT22;30743;52.008;5.644;2024-03-25T15:02:46;21.70;91.10
45008;DHT22;30743;52.008;5.644;2024-03-25T15:05:11;22.00;90.40
45008;DHT22;30743;52.008;5.644;2024-03-25T15:07:37;22.20;91.30
45008;DHT22;30743;52.008;5.644;2024-03-25T15:10:03;22.40;91.50
45008;DHT22;30743;52.008;5.644;2024-03-25T15:12:29;22.40;91.30
45008;DHT22;30743;52.008;5.644;2024-03-25T15:14:54;22.50;91.10
45008;DHT22;30743;52.008;5.644;2024-03-25T15:17:20;22.40;89.60
45008;DHT22;30743;52.008;5.644;2024-03-25T15:19:45;21.90;87.10
45008;DHT22;30743;52.008;5.644;2024-03-25T15:22:11;21.60;89.40
45008;DHT22;30743;52.008;5.644;2024-03-25T15:24:36;21.10;90.10
45008;DHT22;30743;52.008;5.644;2024-03-25T15:27:02;21.30;88.90
45008;DHT22;30743;52.008;5.644;2024-03-25T15:29:27;21.00;88.80
45008;DHT22;30743;52.008;5.644;2024-03-25T15:31:53;20.90;90.00
45008;DHT22;30743;52.008;5.644;2024-03-25T15:34:19;20.20;89.90